NCAR-RAP Real-Time Weather Data

Output produced by METARs form (30 June 2015  12:39 UTC)
found at http://weather.rap.ucar.edu/surface/
 
Conditions at: KLOU observed 30 June 2015  11:53 UTC
Temperature: 20.0°C (68°F)
Dewpoint: 17.8°C (64°F) [RH = 87%]
Pressure (altimeter): 29.90 inches Hg (1012.6 mb)
[Sea-level pressure: 1012.1 mb]
Winds: from the S (180 degrees) at 3 MPH (3 knots; 1.6 m/s)
Visibility: 10 or more miles (16+ km)
Ceiling: at least 12,000 feet AGL
Clouds: sky clear below 12,000 feet AGL
Present Weather: no significant weather observed at this time
KLOU 301153Z 18003KT 10SM CLR 20/18 A2990 RMK AO2 SLP121 70096 T02000178 10206 20189 53010